Time;durP1;ratioP1;P1;durP2;ratioP2;P2;SDS_P1;SDS_P2;PMS_P1;PMS_P2;Temp;Humidity;BMP_temperature;BMP_pressure;BME280_temperature;BME280_humidity;BME280_pressure;Samples;Min_cycle;Max_cycle;Signal;HPM_P1;HPM_P2
2023/03/12 00:01:13;;;;;;;4.18;2.70;;;-0.30;99.90;;;;;;5113889;28;20203;-62
2023/03/12 00:03:39;;;;;;;5.00;2.08;;;-0.30;99.90;;;;;;5113372;28;20692;-62
2023/03/12 00:06:07;;;;;;;4.47;2.38;;;-0.30;99.90;;;;;;5113415;28;20222;-60
2023/03/12 00:08:34;;;;;;;5.72;2.63;;;-0.30;99.90;;;;;;5113471;28;20204;-62
2023/03/12 00:11:05;;;;;;;3.47;2.13;;;-0.30;99.90;;;;;;5113528;28;20225;-62
2023/03/12 00:13:32;;;;;;;4.30;2.42;;;-0.30;99.90;;;;;;5113154;28;20188;-61
2023/03/12 00:16:03;;;;;;;3.55;2.42;;;-0.40;99.90;;;;;;5113045;28;20223;-61
2023/03/12 00:18:32;;;;;;;5.15;2.25;;;-0.40;99.90;;;;;;5113138;28;20184;-61
2023/03/12 00:20:58;;;;;;;3.38;2.10;;;-0.30;99.90;;;;;;5113444;28;20210;-62
2023/03/12 00:23:25;;;;;;;2.45;2.20;;;-0.30;99.90;;;;;;5113268;28;20574;-62
2023/03/12 00:25:52;;;;;;;6.80;2.85;;;-0.30;99.90;;;;;;5113178;28;20230;-63
2023/03/12 00:28:19;;;;;;;3.38;2.08;;;-0.30;99.90;;;;;;5117552;28;20208;-63
2023/03/12 00:30:46;;;;;;;3.50;2.63;;;-0.20;99.90;;;;;;5117576;28;20206;-61
2023/03/12 00:33:12;;;;;;;2.15;1.90;;;-0.20;99.90;;;;;;5117492;28;20199;-61
2023/03/12 00:35:41;;;;;;;4.03;2.15;;;-0.10;99.90;;;;;;5117181;28;20235;-61
2023/03/12 00:38:07;;;;;;;3.10;2.30;;;-0.10;99.90;;;;;;5117460;28;20207;-62
2023/03/12 00:40:38;;;;;;;3.80;2.20;;;0.00;99.90;;;;;;5117279;28;20199;-62
2023/03/12 00:43:05;;;;;;;2.97;2.22;;;0.00;99.90;;;;;;5117011;28;20665;-62
2023/03/12 00:45:32;;;;;;;4.13;2.42;;;-0.10;99.90;;;;;;5117203;28;20223;-62
2023/03/12 00:47:59;;;;;;;3.10;2.30;;;-0.10;99.90;;;;;;5117416;28;20231;-61
2023/03/12 00:50:25;;;;;;;4.97;2.90;;;-0.20;99.90;;;;;;5117275;28;20199;-63
2023/03/12 00:52:54;;;;;;;5.45;2.30;;;-0.20;99.90;;;;;;5117122;28;20617;-62
2023/03/12 00:55:20;;;;;;;3.15;2.47;;;-0.20;99.90;;;;;;5117211;28;20226;-63
2023/03/12 00:57:47;;;;;;;3.45;2.38;;;-0.30;99.90;;;;;;5117349;28;20191;-62
2023/03/12 01:00:17;;;;;;;9.32;2.53;;;-0.40;99.90;;;;;;5116791;28;20572;-63
2023/03/12 01:02:43;;;;;;;5.15;3.42;;;-0.40;99.90;;;;;;5117088;28;20552;-61
2023/03/12 01:05:12;;;;;;;2.50;2.30;;;-0.40;99.90;;;;;;5117494;28;20216;-62
2023/03/12 01:07:39;;;;;;;2.88;2.00;;;-0.40;99.90;;;;;;5116832;28;20207;-63
2023/03/12 01:10:09;;;;;;;3.17;2.40;;;-0.40;99.90;;;;;;5116453;28;20733;-63
2023/03/12 01:12:36;;;;;;;3.20;2.67;;;-0.40;99.90;;;;;;5116854;28;20199;-62
2023/03/12 01:15:04;;;;;;;3.75;2.30;;;-0.40;99.90;;;;;;5117828;28;20582;-62
2023/03/12 01:17:31;;;;;;;3.97;2.17;;;-0.50;99.90;;;;;;5116684;28;20223;-61
2023/03/12 01:19:58;;;;;;;2.58;2.38;;;-0.50;99.90;;;;;;5117492;28;20211;-62
2023/03/12 01:22:24;;;;;;;4.32;2.63;;;-0.50;99.90;;;;;;5119646;28;20737;-62
2023/03/12 01:24:51;;;;;;;5.85;2.00;;;-0.50;99.90;;;;;;5117294;28;20195;-61
2023/03/12 01:27:20;;;;;;;6.97;2.83;;;-0.60;99.90;;;;;;5118154;28;20196;-63
2023/03/12 01:29:51;;;;;;;3.20;2.50;;;-0.60;99.90;;;;;;5117145;28;20327;-61
2023/03/12 01:32:18;;;;;;;4.55;2.08;;;-0.60;99.90;;;;;;5116588;28;20207;-61
2023/03/12 01:34:45;;;;;;;2.00;1.90;;;-0.70;99.90;;;;;;5116561;28;20290;-62
2023/03/12 01:37:12;;;;;;;3.42;2.25;;;-0.70;99.90;;;;;;5116533;28;20585;-62
2023/03/12 01:39:39;;;;;;;5.60;3.47;;;-0.70;99.90;;;;;;5115624;28;20678;-62
2023/03/12 01:42:06;;;;;;;2.75;2.40;;;-0.70;99.90;;;;;;5116045;28;20676;-62
2023/03/12 01:44:54;;;;;;;4.00;2.70;;;-0.70;99.90;;;;;;5116783;28;20203;-62
2023/03/12 01:47:21;;;;;;;2.67;2.42;;;-0.80;99.90;;;;;;5116306;28;20187;-62
2023/03/12 01:49:49;;;;;;;4.72;2.40;;;-0.80;99.90;;;;;;5115912;28;20199;-62
2023/03/12 01:52:20;;;;;;;3.72;2.60;;;-0.80;99.90;;;;;;5116444;28;20566;-61
2023/03/12 01:54:53;;;;;;;4.88;2.70;;;-0.70;99.90;;;;;;5115892;28;20191;-60
2023/03/12 01:57:23;;;;;;;4.40;2.22;;;-0.80;99.90;;;;;;5115965;28;20200;-62
2023/03/12 01:59:57;;;;;;;2.30;2.10;;;-0.80;99.90;;;;;;5116720;28;20214;-62
2023/03/12 02:02:28;;;;;;;4.28;2.47;;;-0.80;99.90;;;;;;5115970;28;20187;-60
2023/03/12 02:05:04;;;;;;;7.50;2.00;;;-0.70;99.90;;;;;;5115545;28;20279;-60
2023/03/12 02:07:30;;;;;;;4.07;2.00;;;-0.70;99.90;;;;;;5115776;28;20179;-60
2023/03/12 02:09:57;;;;;;;2.78;1.90;;;-0.70;99.90;;;;;;5115725;28;20204;-62
2023/03/12 02:12:24;;;;;;;2.85;2.40;;;-0.70;99.90;;;;;;5115713;28;20195;-60
2023/03/12 02:14:51;;;;;;;9.43;2.70;;;-0.70;99.90;;;;;;5115468;28;20208;-62
2023/03/12 02:17:19;;;;;;;6.70;2.15;;;-0.70;99.90;;;;;;5115655;28;20220;-61
2023/03/12 02:19:55;;;;;;;3.70;2.17;;;-0.70;99.90;;;;;;5115206;28;20696;-61
2023/03/12 02:22:23;;;;;;;4.60;2.63;;;-0.80;99.90;;;;;;5115570;28;20191;-61
2023/03/12 02:24:56;;;;;;;3.40;2.30;;;-0.80;99.90;;;;;;5115332;28;20283;-62
2023/03/12 02:27:24;;;;;;;2.60;2.40;;;-0.80;99.90;;;;;;5115439;28;20184;-62
2023/03/12 02:29:51;;;;;;;2.63;2.20;;;-0.80;99.90;;;;;;5115241;28;20204;-61
2023/03/12 02:32:22;;;;;;;4.97;2.30;;;-0.80;99.90;;;;;;5115465;28;20212;-62
2023/03/12 02:34:49;;;;;;;4.57;2.63;;;-0.80;99.90;;;;;;5115255;28;20194;-61
2023/03/12 02:37:16;;;;;;;4.80;2.55;;;-0.80;99.90;;;;;;5114939;28;20223;-61
2023/03/12 02:39:49;;;;;;;4.93;2.70;;;-0.80;99.90;;;;;;5115198;28;20207;-61
2023/03/12 02:42:17;;;;;;;4.03;2.60;;;-0.80;99.90;;;;;;5114855;28;20538;-61
2023/03/12 02:44:45;;;;;;;6.03;3.10;;;-0.80;99.90;;;;;;5114673;28;20736;-61
2023/03/12 02:47:12;;;;;;;2.97;2.33;;;-0.80;99.90;;;;;;5114941;28;20206;-61
2023/03/12 02:49:38;;;;;;;3.40;2.33;;;-0.90;99.90;;;;;;5113984;28;20199;-60
2023/03/12 02:52:05;;;;;;;4.30;2.33;;;-0.90;99.90;;;;;;5115198;28;20684;-60
2023/03/12 02:54:32;;;;;;;4.38;2.70;;;-1.00;99.90;;;;;;5114657;28;20210;-61
2023/03/12 02:56:59;;;;;;;2.85;2.50;;;-1.00;99.90;;;;;;5114704;28;20227;-60
2023/03/12 02:59:26;;;;;;;3.53;2.90;;;-1.00;99.90;;;;;;5114739;28;20207;-60
2023/03/12 03:01:55;;;;;;;4.78;3.08;;;-1.00;99.90;;;;;;5114735;28;20208;-61
2023/03/12 03:04:23;;;;;;;3.22;2.80;;;-1.10;99.90;;;;;;5114249;28;20562;-60
2023/03/12 03:06:51;;;;;;;2.97;2.58;;;-1.10;99.90;;;;;;5114337;28;20595;-60
2023/03/12 03:09:18;;;;;;;4.80;2.75;;;-1.20;99.90;;;;;;5114884;28;20696;-61
2023/03/12 03:11:45;;;;;;;4.35;3.33;;;-1.20;99.90;;;;;;5114881;28;20206;-60
2023/03/12 03:14:12;;;;;;;3.17;2.63;;;-1.30;99.90;;;;;;5115407;28;20211;-61
2023/03/12 03:16:38;;;;;;;5.75;3.25;;;-1.30;99.90;;;;;;5116076;28;20231;-61
2023/03/12 03:19:07;;;;;;;3.50;2.50;;;-1.40;99.90;;;;;;5117157;28;20282;-61
2023/03/12 03:21:34;;;;;;;4.00;3.08;;;-1.40;99.90;;;;;;5117576;28;20196;-60
2023/03/12 03:24:01;;;;;;;4.57;2.50;;;-1.40;99.90;;;;;;5117145;28;20195;-60
2023/03/12 03:26:27;;;;;;;9.02;3.40;;;-1.40;99.90;;;;;;5117264;28;20310;-60
2023/03/12 03:28:54;;;;;;;3.35;2.45;;;-1.50;99.90;;;;;;5117364;28;20571;-60
2023/03/12 03:31:21;;;;;;;3.60;2.67;;;-1.50;99.90;;;;;;5115318;28;20199;-61
2023/03/12 03:33:49;;;;;;;4.13;2.75;;;-1.50;99.90;;;;;;5113828;28;20549;-61
2023/03/12 03:36:18;;;;;;;7.85;2.97;;;-1.50;99.90;;;;;;5113810;28;20223;-61
2023/03/12 03:38:48;;;;;;;2.92;2.40;;;-1.50;99.90;;;;;;5113788;28;20211;-61
2023/03/12 03:41:15;;;;;;;5.78;2.75;;;-1.50;99.90;;;;;;5113832;28;20184;-61
2023/03/12 03:43:42;;;;;;;12.95;3.63;;;-1.50;99.90;;;;;;5113498;28;20552;-59
2023/03/12 03:46:10;;;;;;;3.45;2.65;;;-1.50;99.90;;;;;;5113366;28;20709;-60
2023/03/12 03:48:36;;;;;;;7.90;3.33;;;-1.50;99.90;;;;;;5113721;28;20202;-60
2023/03/12 03:51:05;;;;;;;4.60;3.13;;;-1.50;99.90;;;;;;5113631;28;20195;-59
2023/03/12 03:53:34;;;;;;;4.93;2.78;;;-1.50;99.90;;;;;;5113653;28;20199;-60
2023/03/12 03:56:06;;;;;;;11.48;3.00;;;-1.50;99.90;;;;;;5113501;28;20230;-60
2023/03/12 03:58:32;;;;;;;2.72;2.33;;;-1.50;99.90;;;;;;5113598;28;20204;-60
2023/03/12 04:00:59;;;;;;;7.35;3.95;;;-1.50;99.90;;;;;;5113144;28;20219;-60
2023/03/12 04:03:26;;;;;;;4.03;2.97;;;-1.50;99.90;;;;;;5113218;28;20668;-61
2023/03/12 04:05:54;;;;;;;4.57;3.13;;;-1.50;99.90;;;;;;5113045;28;20704;-59
2023/03/12 04:11:22;;;;;;;3.42;2.75;;;-1.50;99.90;;;;;;5111319;27;20895;-61
2023/03/12 04:13:49;;;;;;;3.72;2.83;;;-1.50;99.90;;;;;;5110791;28;20214;-62
2023/03/12 04:16:17;;;;;;;4.38;2.78;;;-1.50;99.90;;;;;;5110527;28;20222;-62
2023/03/12 04:18:44;;;;;;;8.18;2.90;;;-1.50;99.90;;;;;;5111006;28;20199;-61
2023/03/12 04:21:13;;;;;;;4.65;3.00;;;-1.50;99.90;;;;;;5110560;28;20200;-62
2023/03/12 04:23:40;;;;;;;5.25;3.60;;;-1.40;99.90;;;;;;5136210;22;20234;-62
2023/03/12 04:26:07;;;;;;;6.30;3.13;;;-1.40;99.90;;;;;;5112756;28;20205;-61
2023/03/12 04:28:36;;;;;;;4.25;3.85;;;-1.40;99.90;;;;;;5122617;28;20200;-62
2023/03/12 04:31:06;;;;;;;4.50;3.17;;;-1.40;99.90;;;;;;5128245;28;20234;-62
2023/03/12 04:33:34;;;;;;;4.43;3.10;;;-1.40;99.90;;;;;;5129778;28;20704;-61
2023/03/12 04:36:01;;;;;;;4.90;3.80;;;-1.40;99.90;;;;;;5132955;28;20668;-61
2023/03/12 04:38:28;;;;;;;6.68;3.40;;;-1.40;99.90;;;;;;5138507;28;20199;-61
2023/03/12 04:40:59;;;;;;;5.97;3.35;;;-1.40;99.90;;;;;;5134927;28;20201;-61
2023/03/12 04:43:26;;;;;;;3.88;3.47;;;-1.40;99.90;;;;;;5133110;28;20227;-61
2023/03/12 04:45:54;;;;;;;5.28;3.63;;;-1.40;99.90;;;;;;5132895;28;20199;-62
2023/03/12 04:48:21;;;;;;;4.93;3.15;;;-1.30;99.90;;;;;;5132849;28;20199;-61
2023/03/12 04:50:48;;;;;;;3.75;2.90;;;-1.30;99.90;;;;;;5134878;28;20215;-62
2023/03/12 04:53:14;;;;;;;5.20;3.53;;;-1.20;99.90;;;;;;5135858;28;20223;-61
2023/03/12 04:55:42;;;;;;;4.50;3.00;;;-1.20;99.90;;;;;;5137677;28;20210;-61
2023/03/12 04:58:09;;;;;;;3.55;3.25;;;-1.10;99.90;;;;;;5136647;28;20203;-61
2023/03/12 05:00:36;;;;;;;5.00;3.30;;;-1.10;99.90;;;;;;5138708;28;20199;-62
2023/03/12 05:03:04;;;;;;;3.92;2.85;;;-1.10;99.90;;;;;;5136642;28;20226;-61
2023/03/12 05:05:31;;;;;;;5.40;3.20;;;-1.10;99.90;;;;;;5129664;28;20200;-61
2023/03/12 05:07:58;;;;;;;3.58;2.65;;;-1.10;99.90;;;;;;5116441;28;20205;-61
2023/03/12 05:10:25;;;;;;;3.20;2.70;;;-1.10;99.90;;;;;;5121807;28;20216;-61
2023/03/12 05:12:52;;;;;;;6.20;3.97;;;-1.10;99.90;;;;;;5135099;28;20602;-61
2023/03/12 05:15:19;;;;;;;6.80;3.15;;;-1.10;99.90;;;;;;5135838;28;20199;-62
2023/03/12 05:17:46;;;;;;;4.65;2.72;;;-1.10;99.90;;;;;;5136515;28;20285;-60
2023/03/12 05:20:14;;;;;;;7.53;3.50;;;-1.10;99.90;;;;;;5133391;28;20195;-61
2023/03/12 05:22:41;;;;;;;4.03;3.25;;;-1.00;99.90;;;;;;5106309;28;20306;-61
2023/03/12 05:25:08;;;;;;;9.23;3.05;;;-0.90;99.90;;;;;;5099135;28;20200;-62
2023/03/12 05:27:37;;;;;;;5.25;2.92;;;-0.90;99.90;;;;;;5117652;28;20211;-61
2023/03/12 05:30:06;;;;;;;4.28;3.03;;;-0.80;99.90;;;;;;5114168;28;20310;-60
2023/03/12 05:32:32;;;;;;;3.30;3.00;;;-0.70;99.90;;;;;;5097141;28;20224;-62
2023/03/12 05:34:59;;;;;;;3.90;3.00;;;-0.70;99.90;;;;;;5106835;28;20199;-60
2023/03/12 05:37:27;;;;;;;4.00;3.10;;;-0.70;99.90;;;;;;5116482;28;20215;-61
2023/03/12 05:39:54;;;;;;;5.35;3.28;;;-0.60;99.90;;;;;;5116419;28;20688;-61
2023/03/12 05:42:21;;;;;;;3.80;3.13;;;-0.60;99.90;;;;;;5116632;28;20226;-61
2023/03/12 05:44:48;;;;;;;4.25;2.75;;;-0.50;99.90;;;;;;5116782;28;20203;-62
2023/03/12 05:47:14;;;;;;;4.00;3.00;;;-0.50;99.90;;;;;;5116567;28;20204;-62
2023/03/12 05:49:43;;;;;;;6.75;3.40;;;-0.40;99.90;;;;;;5116408;28;20203;-61
2023/03/12 05:52:09;;;;;;;3.85;2.70;;;-0.40;99.90;;;;;;5115903;28;20230;-61
2023/03/12 05:54:38;;;;;;;4.47;3.15;;;-0.40;99.90;;;;;;5116189;28;20207;-61
2023/03/12 05:57:04;;;;;;;5.47;3.10;;;-0.30;99.90;;;;;;5110918;28;20201;-62
2023/03/12 05:59:31;;;;;;;4.57;3.58;;;-0.30;99.90;;;;;;5104886;28;20192;-62
2023/03/12 06:01:58;;;;;;;3.90;3.47;;;-0.30;99.90;;;;;;5096091;28;20225;-61
2023/03/12 06:04:25;;;;;;;6.70;3.40;;;-0.30;99.90;;;;;;5113843;28;20192;-62
2023/03/12 06:06:52;;;;;;;3.78;3.40;;;-0.20;99.90;;;;;;5102253;28;20211;-61
2023/03/12 06:09:19;;;;;;;4.63;3.38;;;-0.20;99.90;;;;;;5100140;28;20211;-61
2023/03/12 06:11:47;;;;;;;3.88;3.10;;;-0.10;99.90;;;;;;5110583;28;20216;-62
2023/03/12 06:14:14;;;;;;;6.65;3.30;;;-0.10;99.90;;;;;;5108260;28;20579;-61
2023/03/12 06:16:41;;;;;;;6.43;3.28;;;0.00;99.90;;;;;;5105191;28;20200;-61
2023/03/12 06:19:07;;;;;;;5.00;3.10;;;0.10;99.90;;;;;;5115886;28;20206;-60
2023/03/12 06:21:36;;;;;;;3.05;2.75;;;0.20;99.90;;;;;;5116178;28;20196;-62
2023/03/12 06:24:03;;;;;;;4.82;3.40;;;0.20;99.90;;;;;;5119820;28;20214;-62
2023/03/12 06:26:30;;;;;;;4.65;3.40;;;0.30;99.90;;;;;;5109410;28;20201;-61
2023/03/12 06:28:58;;;;;;;7.95;2.95;;;0.40;99.90;;;;;;5103949;28;20215;-62
2023/03/12 06:31:25;;;;;;;3.80;3.40;;;0.40;99.90;;;;;;5114540;28;20220;-62
2023/03/12 06:33:52;;;;;;;4.72;3.13;;;0.50;99.90;;;;;;5114268;28;20282;-61
2023/03/12 06:36:19;;;;;;;4.97;3.72;;;0.50;99.90;;;;;;5109511;28;20600;-61
2023/03/12 06:38:46;;;;;;;5.03;2.75;;;0.60;99.90;;;;;;5126097;28;20206;-61
2023/03/12 06:41:15;;;;;;;8.05;3.75;;;0.70;99.90;;;;;;5125794;28;20191;-62
2023/03/12 06:43:43;;;;;;;4.22;2.95;;;0.70;99.90;;;;;;5112044;28;20226;-62
2023/03/12 06:46:14;;;;;;;4.32;3.80;;;0.80;99.90;;;;;;5120291;28;20208;-61
2023/03/12 06:48:41;;;;;;;4.53;2.60;;;0.80;99.90;;;;;;5126573;28;20566;-61
2023/03/12 06:51:08;;;;;;;3.90;3.50;;;0.90;99.90;;;;;;5124173;28;20219;-62
2023/03/12 06:53:35;;;;;;;5.00;2.75;;;1.00;99.90;;;;;;5123845;28;20230;-62
2023/03/12 06:56:02;;;;;;;3.00;2.72;;;1.00;99.90;;;;;;5124011;28;20200;-61
2023/03/12 06:58:29;;;;;;;4.93;3.42;;;1.10;99.90;;;;;;5102622;28;20211;-62
2023/03/12 07:00:56;;;;;;;3.75;3.20;;;1.10;99.90;;;;;;5106855;28;20200;-60
2023/03/12 07:03:24;;;;;;;4.32;3.20;;;1.20;99.90;;;;;;5104577;28;20234;-61
2023/03/12 07:05:52;;;;;;;5.05;3.50;;;1.20;99.90;;;;;;5115356;28;20208;-62
2023/03/12 07:08:19;;;;;;;3.38;2.75;;;1.30;99.90;;;;;;5096921;28;20200;-62
2023/03/12 07:10:46;;;;;;;4.00;3.20;;;1.40;99.90;;;;;;5108781;28;20243;-62
2023/03/12 07:13:13;;;;;;;3.10;2.25;;;1.50;99.90;;;;;;5101632;28;20598;-62
2023/03/12 07:15:40;;;;;;;6.00;3.38;;;1.60;99.90;;;;;;5112111;28;20203;-62
2023/03/12 07:18:08;;;;;;;7.20;3.22;;;1.70;99.90;;;;;;5126801;28;20203;-62
2023/03/12 07:20:39;;;;;;;5.05;2.80;;;1.80;99.90;;;;;;5122906;28;20210;-61
2023/03/12 07:23:06;;;;;;;5.85;2.97;;;1.90;99.90;;;;;;5125213;28;20235;-62
2023/03/12 07:25:35;;;;;;;3.20;2.90;;;1.90;99.90;;;;;;5124257;28;20192;-62
2023/03/12 07:28:02;;;;;;;3.50;2.40;;;2.00;99.90;;;;;;5120969;28;20206;-61
2023/03/12 07:30:32;;;;;;;5.40;3.80;;;2.00;99.90;;;;;;5114730;28;20219;-61
2023/03/12 07:32:59;;;;;;;3.17;2.70;;;2.10;99.90;;;;;;5119251;28;20220;-62
2023/03/12 07:35:26;;;;;;;4.35;2.90;;;2.10;99.90;;;;;;5108581;28;20210;-62
2023/03/12 07:37:54;;;;;;;5.28;2.80;;;2.30;99.90;;;;;;5114152;28;20192;-62
2023/03/12 07:40:21;;;;;;;4.38;3.10;;;2.50;99.90;;;;;;5098852;28;20565;-60
2023/03/12 07:42:47;;;;;;;3.35;3.05;;;2.60;99.90;;;;;;5105991;28;20219;-61
2023/03/12 07:45:14;;;;;;;6.55;3.28;;;2.70;99.90;;;;;;5114095;28;20195;-61
2023/03/12 07:47:41;;;;;;;5.25;3.17;;;2.70;99.90;;;;;;5113936;28;20218;-62
2023/03/12 07:50:08;;;;;;;4.70;3.53;;;2.70;99.90;;;;;;5115871;28;20207;-61
2023/03/12 07:52:35;;;;;;;3.08;2.78;;;2.80;99.90;;;;;;5114510;28;20215;-62
2023/03/12 07:55:04;;;;;;;4.60;3.65;;;2.90;99.90;;;;;;5115501;28;20196;-61
2023/03/12 07:57:30;;;;;;;3.30;3.00;;;3.00;99.90;;;;;;5115920;28;20199;-61
2023/03/12 07:59:57;;;;;;;5.68;3.15;;;3.20;99.90;;;;;;5114844;28;20207;-61
2023/03/12 08:02:24;;;;;;;3.78;2.80;;;3.30;99.90;;;;;;5114526;28;20242;-60
2023/03/12 08:04:51;;;;;;;4.43;3.33;;;3.40;99.90;;;;;;5114607;28;20203;-60
2023/03/12 08:07:17;;;;;;;3.92;3.30;;;3.40;99.90;;;;;;5116477;28;20211;-62
2023/03/12 08:09:44;;;;;;;3.15;2.85;;;3.40;99.90;;;;;;5108854;28;20200;-61
2023/03/12 08:12:12;;;;;;;3.78;3.28;;;3.40;99.90;;;;;;5103141;28;20222;-61
2023/03/12 08:14:39;;;;;;;5.65;3.45;;;3.40;99.90;;;;;;5110437;28;20196;-62
2023/03/12 08:17:06;;;;;;;3.85;2.75;;;3.50;99.90;;;;;;5100416;28;20319;-61
2023/03/12 08:19:32;;;;;;;5.55;2.80;;;3.60;99.90;;;;;;5107798;28;20657;-60
2023/03/12 08:21:59;;;;;;;7.90;3.95;;;3.70;99.90;;;;;;5113734;28;20227;-61
2023/03/12 08:24:26;;;;;;;4.28;3.58;;;3.80;99.90;;;;;;5115439;28;20202;-62
2023/03/12 08:26:53;;;;;;;4.80;3.05;;;3.90;99.90;;;;;;5118010;28;20199;-61
2023/03/12 08:29:21;;;;;;;3.30;2.83;;;4.00;99.90;;;;;;5118131;28;20211;-61
2023/03/12 08:31:47;;;;;;;3.25;2.67;;;4.00;99.90;;;;;;5119304;28;20248;-61
2023/03/12 08:34:14;;;;;;;3.85;2.63;;;4.00;99.90;;;;;;5119166;28;20199;-61
2023/03/12 08:36:41;;;;;;;4.53;2.95;;;4.10;99.90;;;;;;5115795;28;20207;-61
2023/03/12 08:39:08;;;;;;;3.15;2.63;;;4.10;99.90;;;;;;5116731;28;20215;-61
2023/03/12 08:41:34;;;;;;;3.83;3.17;;;4.10;99.90;;;;;;5107291;28;20196;-62
2023/03/12 08:44:02;;;;;;;5.32;2.20;;;4.20;99.90;;;;;;5100965;28;20192;-62
2023/03/12 08:46:30;;;;;;;2.42;2.10;;;4.20;99.80;;;;;;5110447;28;20195;-62
2023/03/12 08:48:57;;;;;;;6.47;2.85;;;4.30;99.30;;;;;;5097348;28;20204;-63
2023/03/12 08:51:23;;;;;;;2.13;2.03;;;4.30;99.00;;;;;;5105823;28;20212;-61
2023/03/12 08:53:50;;;;;;;2.67;2.33;;;4.40;98.70;;;;;;5099882;28;20216;-62
2023/03/12 08:56:17;;;;;;;3.05;2.45;;;4.40;98.50;;;;;;5105922;28;20239;-65
2023/03/12 08:58:44;;;;;;;2.30;2.10;;;4.40;98.40;;;;;;5117243;28;20665;-61
2023/03/12 09:01:12;;;;;;;3.25;2.30;;;4.50;98.20;;;;;;5119958;28;20637;-63
2023/03/12 09:03:40;;;;;;;3.92;2.65;;;4.50;97.80;;;;;;5101974;28;20224;-60
2023/03/12 09:06:12;;;;;;;5.30;2.17;;;4.60;97.40;;;;;;5102710;28;20196;-60
2023/03/12 09:08:39;;;;;;;2.85;2.08;;;4.60;97.00;;;;;;5103470;28;20268;-62
2023/03/12 09:11:06;;;;;;;2.58;2.20;;;4.70;96.60;;;;;;5110762;28;20216;-62
2023/03/12 09:13:33;;;;;;;2.80;2.20;;;4.70;96.60;;;;;;5119361;28;20610;-62
2023/03/12 09:16:00;;;;;;;3.35;2.88;;;4.70;96.40;;;;;;5118682;28;20200;-62
2023/03/12 09:18:27;;;;;;;3.55;2.08;;;4.80;96.40;;;;;;5104195;28;20580;-62
2023/03/12 09:20:56;;;;;;;2.88;2.20;;;5.00;96.30;;;;;;5117270;28;20196;-62
2023/03/12 09:23:23;;;;;;;2.50;2.30;;;5.10;95.50;;;;;;5115356;28;20251;-61
2023/03/12 09:25:50;;;;;;;3.78;2.47;;;5.20;95.20;;;;;;5103596;28;20201;-61
2023/03/12 09:28:17;;;;;;;2.42;2.00;;;5.20;94.90;;;;;;5097313;28;20201;-63
2023/03/12 09:30:44;;;;;;;6.95;2.58;;;5.20;94.90;;;;;;5097552;28;20202;-62
2023/03/12 09:33:11;;;;;;;2.22;2.03;;;5.20;94.20;;;;;;5098284;28;20224;-63
2023/03/12 09:35:38;;;;;;;6.78;2.13;;;5.20;93.80;;;;;;5111460;28;20252;-62
2023/03/12 09:38:07;;;;;;;5.28;2.72;;;5.20;92.80;;;;;;5105021;28;20204;-62
2023/03/12 09:40:38;;;;;;;2.55;1.90;;;5.20;92.80;;;;;;5111724;28;20292;-62
2023/03/12 09:43:10;;;;;;;6.43;2.35;;;5.40;92.80;;;;;;5107306;28;20709;-62
2023/03/12 09:45:39;;;;;;;4.70;2.50;;;5.70;92.50;;;;;;5110413;28;20205;-63
2023/03/12 09:48:13;;;;;;;3.90;2.83;;;5.90;91.70;;;;;;5112290;28;20202;-61
2023/03/12 09:50:43;;;;;;;8.15;2.60;;;6.20;90.90;;;;;;5101767;28;20200;-63
2023/03/12 09:53:20;;;;;;;2.35;1.85;;;6.40;90.40;;;;;;5112924;28;20236;-66
2023/03/12 09:55:50;;;;;;;5.45;2.30;;;6.50;89.70;;;;;;5118400;28;20192;-62
2023/03/12 09:58:22;;;;;;;2.85;2.53;;;6.30;88.10;;;;;;5122721;28;20570;-63
2023/03/12 10:00:49;;;;;;;4.00;2.25;;;6.30;88.70;;;;;;5118669;28;20204;-61
2023/03/12 10:03:39;;;;;;;4.03;2.88;;;6.30;88.80;;;;;;5120228;28;20231;-61
2023/03/12 10:06:13;;;;;;;3.28;2.58;;;6.30;88.80;;;;;;5108590;28;20197;-61
2023/03/12 10:08:53;;;;;;;2.22;2.03;;;6.40;88.90;;;;;;5098209;28;20192;-62
2023/03/12 10:11:32;;;;;;;3.72;2.30;;;6.40;87.60;;;;;;5111557;28;20212;-62
2023/03/12 10:14:19;;;;;;;5.80;2.75;;;6.50;86.90;;;;;;5105146;28;20265;-62
2023/03/12 10:16:59;;;;;;;2.22;1.98;;;6.60;87.00;;;;;;5097919;28;20188;-62
2023/03/12 10:19:46;;;;;;;2.85;1.90;;;6.80;85.70;;;;;;5112114;28;20204;-62
2023/03/12 10:22:27;;;;;;;3.65;2.40;;;6.90;83.30;;;;;;5106942;28;20231;-62
2023/03/12 10:25:03;;;;;;;4.03;2.60;;;6.90;82.40;;;;;;5118171;28;20199;-62
2023/03/12 10:27:35;;;;;;;3.17;2.85;;;6.90;81.50;;;;;;5113006;28;20208;-62
2023/03/12 10:30:12;;;;;;;5.20;2.90;;;7.00;81.10;;;;;;5100862;28;20180;-62
2023/03/12 10:32:44;;;;;;;4.75;2.60;;;7.00;80.50;;;;;;5101958;28;20234;-62
2023/03/12 10:35:15;;;;;;;2.85;1.95;;;6.80;80.00;;;;;;5102528;28;20259;-62
2023/03/12 10:37:46;;;;;;;5.70;2.65;;;6.70;80.30;;;;;;5111354;28;20202;-63
2023/03/12 10:40:17;;;;;;;4.03;2.05;;;6.50;80.20;;;;;;5114123;28;20187;-63
2023/03/12 10:42:44;;;;;;;4.05;2.80;;;6.40;80.60;;;;;;5103315;28;20216;-62
2023/03/12 10:45:21;;;;;;;4.53;2.55;;;6.40;80.80;;;;;;5107498;28;20203;-62
2023/03/12 10:47:55;;;;;;;4.22;2.67;;;6.30;80.80;;;;;;5118100;28;20561;-62
2023/03/12 10:50:23;;;;;;;4.43;2.83;;;6.20;80.90;;;;;;5102523;28;20241;-62
2023/03/12 10:52:52;;;;;;;2.22;1.90;;;6.00;81.70;;;;;;5111196;28;20233;-62
2023/03/12 10:55:25;;;;;;;2.80;2.25;;;5.90;82.70;;;;;;5106643;28;20208;-59
2023/03/12 10:57:52;;;;;;;2.88;2.50;;;5.80;83.40;;;;;;5110037;28;20208;-62
2023/03/12 11:00:21;;;;;;;4.22;2.67;;;5.70;83.90;;;;;;5121127;28;20596;-62
2023/03/12 11:02:58;;;;;;;5.80;2.50;;;5.70;85.30;;;;;;5119909;28;20223;-63
2023/03/12 11:05:27;;;;;;;5.13;2.88;;;5.60;85.70;;;;;;5100839;28;20189;-61
2023/03/12 11:07:54;;;;;;;3.42;2.65;;;5.50;87.00;;;;;;5097787;28;20208;-60
2023/03/12 11:10:25;;;;;;;2.83;2.10;;;5.50;88.30;;;;;;5096704;28;20197;-62
2023/03/12 11:13:03;;;;;;;4.00;2.35;;;5.40;89.50;;;;;;5105510;28;20227;-62
2023/03/12 11:15:39;;;;;;;3.42;2.20;;;5.40;90.40;;;;;;5116847;28;20182;-61
2023/03/12 11:18:21;;;;;;;3.53;2.30;;;5.50;90.90;;;;;;5116252;28;20196;-62
2023/03/12 11:20:51;;;;;;;4.68;2.75;;;5.30;91.30;;;;;;5116707;28;20207;-63
2023/03/12 11:23:21;;;;;;;3.42;2.90;;;5.30;92.00;;;;;;5104891;28;20224;-63
2023/03/12 11:25:54;;;;;;;2.67;2.10;;;5.20;92.60;;;;;;5117263;28;20192;-63
2023/03/12 11:28:24;;;;;;;4.60;2.80;;;5.20;93.20;;;;;;5115980;28;20188;-62
2023/03/12 11:30:53;;;;;;;3.78;2.97;;;5.10;93.90;;;;;;5116366;28;20196;-63
2023/03/12 11:33:20;;;;;;;4.30;2.58;;;5.10;94.30;;;;;;5116774;28;20680;-63
2023/03/12 11:36:00;;;;;;;4.20;2.92;;;5.10;94.70;;;;;;5116497;28;20203;-63
2023/03/12 11:38:34;;;;;;;4.10;3.60;;;5.00;95.30;;;;;;5116338;28;20179;-61
2023/03/12 11:41:12;;;;;;;12.57;6.20;;;5.10;96.30;;;;;;5116192;28;20187;-63
2023/03/12 11:43:50;;;;;;;9.38;5.15;;;5.20;96.60;;;;;;5115638;28;20219;-61
2023/03/12 11:46:25;;;;;;;9.60;5.70;;;5.30;96.60;;;;;;5115619;28;20188;-62
2023/03/12 11:49:04;;;;;;;11.27;6.00;;;5.30;96.80;;;;;;5116137;28;20194;-63
2023/03/12 11:51:41;;;;;;;6.32;4.45;;;5.30;97.00;;;;;;5115368;28;20188;-64
2023/03/12 11:54:38;;;;;;;6.38;3.60;;;5.30;97.50;;;;;;5114836;28;20184;-64
2023/03/12 11:57:16;;;;;;;5.63;3.30;;;5.20;98.50;;;;;;5115766;28;20180;-62
2023/03/12 12:00:03;;;;;;;2.60;2.40;;;5.10;99.20;;;;;;5115406;28;20187;-63
2023/03/12 12:03:02;;;;;;;4.57;3.25;;;5.10;99.80;;;;;;5115764;28;20219;-63
2023/03/12 12:05:38;;;;;;;3.83;3.20;;;5.10;99.90;;;;;;5116355;28;20204;-63
2023/03/12 12:08:32;;;;;;;4.82;2.95;;;5.00;99.90;;;;;;5118598;28;20180;-63
2023/03/12 12:11:05;;;;;;;10.50;3.65;;;5.00;99.90;;;;;;5099368;28;20203;-62
2023/03/12 12:13:43;;;;;;;5.43;3.10;;;5.00;99.90;;;;;;5129564;28;20230;-63
2023/03/12 12:16:30;;;;;;;8.55;3.80;;;5.10;99.90;;;;;;5130171;28;20187;-62
2023/03/12 12:19:05;;;;;;;4.60;3.50;;;5.10;99.90;;;;;;5129154;28;20180;-62
2023/03/12 12:21:52;;;;;;;5.60;3.15;;;5.10;99.90;;;;;;5130006;28;20183;-62
2023/03/12 12:24:37;;;;;;;6.95;4.55;;;5.10;99.90;;;;;;5128424;28;20283;-60
2023/03/12 12:27:13;;;;;;;6.05;3.75;;;5.00;99.90;;;;;;5116787;28;20188;-63
2023/03/12 12:30:04;;;;;;;8.50;4.15;;;4.90;99.90;;;;;;5116273;28;20188;-62
2023/03/12 12:32:41;;;;;;;8.73;3.55;;;4.70;99.90;;;;;;5113502;28;20238;-63
2023/03/12 12:35:18;;;;;;;6.85;4.32;;;4.60;99.90;;;;;;5119233;28;20184;-63
2023/03/12 12:37:53;;;;;;;6.50;3.67;;;4.50;99.90;;;;;;5124907;28;20188;-64
2023/03/12 12:40:25;;;;;;;5.03;3.80;;;4.40;99.90;;;;;;5121141;28;20195;-63
2023/03/12 12:43:02;;;;;;;10.27;4.75;;;4.30;99.90;;;;;;5121929;28;20226;-63
2023/03/12 12:45:30;;;;;;;4.70;3.60;;;4.30;99.90;;;;;;5121880;28;20183;-62
2023/03/12 12:48:02;;;;;;;6.53;3.60;;;4.20;99.90;;;;;;5120870;28;20212;-63
2023/03/12 12:50:34;;;;;;;4.15;3.75;;;4.20;99.90;;;;;;5120858;28;20180;-61
2023/03/12 12:53:13;;;;;;;4.95;3.45;;;4.20;99.90;;;;;;5120307;28;20583;-64
2023/03/12 12:55:45;;;;;;;3.83;3.42;;;4.10;99.90;;;;;;5121341;28;20209;-64
2023/03/12 12:58:17;;;;;;;3.95;3.55;;;4.00;99.90;;;;;;5121244;28;20190;-63
2023/03/12 13:00:49;;;;;;;4.75;4.13;;;4.00;99.90;;;;;;5121728;28;20518;-64
2023/03/12 13:03:18;;;;;;;5.57;4.40;;;4.00;99.90;;;;;;5121821;28;20270;-63
2023/03/12 13:05:53;;;;;;;6.35;4.00;;;4.00;99.90;;;;;;5120662;28;20655;-63
2023/03/12 13:08:35;;;;;;;4.22;3.83;;;4.00;99.90;;;;;;5120856;28;20603;-63